TAM3642 SBGR-SBBV
Flight info
| Callsign | TAM3642 |
|---|---|
| Flight time | N/A |
| Altitude | 36000 |
| Route | GERTU UM423 ISTOK DCT BVI |
| Aircraft | A320/M-SDE3FGHIRWY/LB1 |
Departure
| Time | N/A |
|---|---|
| Airport | São Paulo/Guarulhos–Governor André Franco Montoro International Airport (SBGR) |
Arrival
| Time | 2026-04-23 05:03 |
|---|---|
| Airport | Atlas Brasil Cantanhede International Airport (SBBV) |
| Time | Latitude | Longitude | Altitude | Speed | Heading |
|---|---|---|---|---|---|
| 2026-04-23 01:38 | -20.52297 | -48.64473 | 36046 ft | 480 kts | 330° |
| 2026-04-23 01:38 | -20.49381 | -48.66099 | 36052 ft | 480 kts | 330° |
| 2026-04-23 01:38 | -20.43463 | -48.69403 | 36044 ft | 479 kts | 330° |
| 2026-04-23 01:39 | -20.37549 | -48.72702 | 36053 ft | 480 kts | 330° |
| 2026-04-23 01:39 | -20.31629 | -48.76010 | 36054 ft | 480 kts | 330° |
| 2026-04-23 01:40 | -20.25701 | -48.79310 | 36047 ft | 481 kts | 330° |
| 2026-04-23 01:40 | -20.19768 | -48.82606 | 36051 ft | 481 kts | 330° |
| 2026-04-23 01:41 | -20.13836 | -48.85909 | 36053 ft | 481 kts | 330° |
| 2026-04-23 01:41 | -20.07914 | -48.89205 | 36057 ft | 481 kts | 330° |
| 2026-04-23 01:42 | -20.01982 | -48.92493 | 36058 ft | 481 kts | 330° |
| 2026-04-23 01:42 | -19.96037 | -48.95782 | 36058 ft | 481 kts | 330° |
| 2026-04-23 01:43 | -19.90096 | -48.99070 | 36052 ft | 481 kts | 330° |
| 2026-04-23 01:43 | -19.84156 | -49.02363 | 36054 ft | 481 kts | 330° |
| 2026-04-23 01:44 | -19.78227 | -49.05656 | 36061 ft | 481 kts | 330° |
| 2026-04-23 01:44 | -19.72287 | -49.08943 | 36052 ft | 481 kts | 330° |
| 2026-04-23 01:45 | -19.66358 | -49.12208 | 36062 ft | 481 kts | 330° |
| 2026-04-23 01:45 | -19.60423 | -49.15476 | 36047 ft | 480 kts | 330° |
| 2026-04-23 01:46 | -19.54486 | -49.18747 | 36062 ft | 481 kts | 330° |
| 2026-04-23 01:46 | -19.48584 | -49.21996 | 36054 ft | 481 kts | 330° |
| 2026-04-23 01:47 | -19.42650 | -49.25266 | 36060 ft | 481 kts | 330° |
| 2026-04-23 01:47 | -19.36714 | -49.28535 | 36059 ft | 481 kts | 330° |
| 2026-04-23 01:48 | -19.30777 | -49.31795 | 36060 ft | 480 kts | 330° |
| 2026-04-23 01:48 | -19.24846 | -49.35052 | 36057 ft | 480 kts | 330° |
| 2026-04-23 01:49 | -19.18921 | -49.38308 | 36049 ft | 479 kts | 330° |
| 2026-04-23 01:49 | -19.12999 | -49.41556 | 36056 ft | 480 kts | 330° |
| 2026-04-23 01:50 | -19.07068 | -49.44799 | 36056 ft | 480 kts | 331° |
| 2026-04-23 01:50 | -19.01128 | -49.48044 | 36053 ft | 480 kts | 331° |
| 2026-04-23 01:51 | -18.95203 | -49.51291 | 36053 ft | 480 kts | 331° |
| 2026-04-23 01:51 | -18.89261 | -49.54539 | 36052 ft | 480 kts | 331° |
| 2026-04-23 01:52 | -18.83363 | -49.57755 | 36053 ft | 480 kts | 331° |
| 2026-04-23 01:52 | -18.77430 | -49.60987 | 36048 ft | 480 kts | 331° |
| 2026-04-23 01:53 | -18.71500 | -49.64222 | 36044 ft | 480 kts | 331° |
| 2026-04-23 01:53 | -18.65570 | -49.67459 | 36042 ft | 480 kts | 331° |
| 2026-04-23 01:54 | -18.59625 | -49.70697 | 36037 ft | 480 kts | 331° |
| 2026-04-23 01:54 | -18.53681 | -49.73926 | 36037 ft | 481 kts | 331° |
| 2026-04-23 01:55 | -18.47733 | -49.77156 | 36039 ft | 481 kts | 331° |
| 2026-04-23 01:55 | -18.41783 | -49.80389 | 36040 ft | 480 kts | 331° |
| 2026-04-23 01:56 | -18.35847 | -49.83612 | 36039 ft | 480 kts | 331° |
| 2026-04-23 01:56 | -18.29913 | -49.86833 | 36026 ft | 480 kts | 331° |
| 2026-04-23 01:57 | -18.23967 | -49.90049 | 36025 ft | 480 kts | 331° |
| 2026-04-23 01:57 | -18.18018 | -49.93269 | 36029 ft | 481 kts | 331° |
| 2026-04-23 01:58 | -18.12070 | -49.96497 | 36036 ft | 481 kts | 331° |
| 2026-04-23 01:58 | -18.06153 | -49.99691 | 36035 ft | 481 kts | 332° |
| 2026-04-23 01:59 | -18.00194 | -50.02900 | 36037 ft | 481 kts | 331° |
| 2026-04-23 01:59 | -17.94224 | -50.06062 | 36038 ft | 481 kts | 332° |
| 2026-04-23 02:00 | -17.88213 | -50.09152 | 36033 ft | 481 kts | 333° |
| 2026-04-23 02:00 | -17.82188 | -50.12227 | 36033 ft | 481 kts | 333° |
| 2026-04-23 02:01 | -17.76186 | -50.15345 | 36030 ft | 482 kts | 332° |
| 2026-04-23 02:01 | -17.70227 | -50.18578 | 36032 ft | 482 kts | 331° |
| 2026-04-23 02:02 | -17.64286 | -50.21844 | 36034 ft | 482 kts | 332° |
| 2026-04-23 02:02 | -17.58337 | -50.25082 | 36029 ft | 482 kts | 332° |
| 2026-04-23 02:03 | -17.52370 | -50.28291 | 36027 ft | 482 kts | 332° |
| 2026-04-23 02:03 | -17.46410 | -50.31505 | 36024 ft | 482 kts | 332° |
| 2026-04-23 02:04 | -17.40448 | -50.34720 | 36034 ft | 482 kts | 332° |
| 2026-04-23 02:04 | -17.34470 | -50.37918 | 36036 ft | 482 kts | 332° |
| 2026-04-23 02:05 | -17.28488 | -50.41101 | 36036 ft | 483 kts | 332° |
| 2026-04-23 02:05 | -17.22503 | -50.44278 | 36044 ft | 482 kts | 332° |
| 2026-04-23 02:06 | -17.16555 | -50.47444 | 36049 ft | 482 kts | 332° |
| 2026-04-23 02:06 | -17.10539 | -50.50647 | 36043 ft | 482 kts | 333° |
| 2026-04-23 02:07 | -17.04564 | -50.53833 | 36040 ft | 482 kts | 333° |
| 2026-04-23 02:07 | -16.98580 | -50.57018 | 36039 ft | 483 kts | 333° |
| 2026-04-23 02:08 | -16.92588 | -50.60201 | 36042 ft | 483 kts | 333° |
| 2026-04-23 02:08 | -16.86601 | -50.63383 | 36037 ft | 483 kts | 333° |
| 2026-04-23 02:09 | -16.80602 | -50.66564 | 36040 ft | 483 kts | 333° |
| 2026-04-23 02:09 | -16.74599 | -50.69737 | 36043 ft | 483 kts | 333° |
| 2026-04-23 02:10 | -16.68611 | -50.72911 | 36046 ft | 483 kts | 333° |
| 2026-04-23 02:10 | -16.62614 | -50.76099 | 36040 ft | 483 kts | 333° |
| 2026-04-23 02:11 | -16.56655 | -50.79261 | 36032 ft | 484 kts | 334° |
| 2026-04-23 02:11 | -16.50646 | -50.82434 | 36031 ft | 484 kts | 334° |
| 2026-04-23 02:12 | -16.44641 | -50.85601 | 36027 ft | 484 kts | 334° |
| 2026-04-23 02:12 | -16.38630 | -50.88772 | 36027 ft | 484 kts | 334° |
| 2026-04-23 02:13 | -16.32614 | -50.91943 | 36027 ft | 484 kts | 334° |
| 2026-04-23 02:13 | -16.26601 | -50.95119 | 36020 ft | 484 kts | 334° |
| 2026-04-23 02:14 | -16.20592 | -50.98294 | 36021 ft | 484 kts | 334° |
| 2026-04-23 02:14 | -16.14569 | -51.01460 | 36014 ft | 485 kts | 334° |
| 2026-04-23 02:15 | -16.05535 | -51.06209 | 36011 ft | 485 kts | 334° |
| 2026-04-23 02:16 | -15.99515 | -51.09383 | 36012 ft | 485 kts | 334° |
| 2026-04-23 02:16 | -15.93485 | -51.12555 | 36005 ft | 486 kts | 334° |
| 2026-04-23 02:17 | -15.87448 | -51.15717 | 36002 ft | 486 kts | 335° |
| 2026-04-23 02:17 | -15.81410 | -51.18880 | 36001 ft | 487 kts | 335° |
| 2026-04-23 02:18 | -15.75364 | -51.22047 | 36000 ft | 487 kts | 335° |
| 2026-04-23 02:18 | -15.69312 | -51.25213 | 36000 ft | 487 kts | 335° |
| 2026-04-23 02:19 | -15.63269 | -51.28388 | 35994 ft | 487 kts | 335° |
| 2026-04-23 02:19 | -15.57248 | -51.31540 | 35995 ft | 488 kts | 335° |
| 2026-04-23 02:20 | -15.51181 | -51.34709 | 35996 ft | 488 kts | 335° |
| 2026-04-23 02:20 | -15.46108 | -51.37353 | 35998 ft | 488 kts | 335° |
| 2026-04-23 02:21 | -15.39060 | -51.41037 | 35999 ft | 488 kts | 335° |
| 2026-04-23 02:21 | -15.33985 | -51.43690 | 35998 ft | 488 kts | 335° |
| 2026-04-23 02:22 | -15.27913 | -51.46851 | 35995 ft | 488 kts | 335° |
| 2026-04-23 02:22 | -15.21848 | -51.50013 | 35997 ft | 489 kts | 335° |
| 2026-04-23 02:23 | -15.15772 | -51.53176 | 35998 ft | 489 kts | 335° |
| 2026-04-23 02:23 | -15.09691 | -51.56338 | 35996 ft | 489 kts | 335° |
| 2026-04-23 02:24 | -15.03607 | -51.59495 | 36002 ft | 489 kts | 336° |
| 2026-04-23 02:24 | -14.97543 | -51.62580 | 36003 ft | 489 kts | 336° |
| 2026-04-23 02:25 | -14.91434 | -51.65659 | 36000 ft | 488 kts | 336° |
| 2026-04-23 02:25 | -14.85331 | -51.68747 | 35998 ft | 488 kts | 336° |
| 2026-04-23 02:26 | -14.79234 | -51.71856 | 35999 ft | 488 kts | 336° |
| 2026-04-23 02:26 | -14.73137 | -51.74956 | 35999 ft | 488 kts | 336° |
| 2026-04-23 02:27 | -14.67040 | -51.78047 | 35997 ft | 488 kts | 336° |
| 2026-04-23 02:27 | -14.60938 | -51.81137 | 35999 ft | 489 kts | 336° |
| 2026-04-23 02:28 | -14.54840 | -51.84234 | 36001 ft | 488 kts | 336° |
| 2026-04-23 02:28 | -14.48737 | -51.87327 | 35999 ft | 488 kts | 336° |
| 2026-04-23 02:29 | -14.42639 | -51.90405 | 35999 ft | 488 kts | 336° |
| 2026-04-23 02:29 | -14.36531 | -51.93487 | 35999 ft | 488 kts | 336° |
| 2026-04-23 02:30 | -14.30430 | -51.96576 | 35999 ft | 488 kts | 336° |
| 2026-04-23 02:30 | -14.24327 | -51.99667 | 35999 ft | 489 kts | 336° |
| 2026-04-23 02:31 | -14.18225 | -52.02750 | 36007 ft | 489 kts | 336° |
| 2026-04-23 02:31 | -14.12114 | -52.05826 | 36007 ft | 489 kts | 337° |
| 2026-04-23 02:32 | -14.06003 | -52.08895 | 36009 ft | 488 kts | 337° |
| 2026-04-23 02:32 | -13.99903 | -52.11976 | 36010 ft | 488 kts | 336° |
| 2026-04-23 02:33 | -13.93814 | -52.15054 | 36012 ft | 488 kts | 337° |
| 2026-04-23 02:33 | -13.87712 | -52.18124 | 36012 ft | 488 kts | 337° |
| 2026-04-23 02:34 | -13.81607 | -52.21155 | 36017 ft | 487 kts | 338° |
| 2026-04-23 02:34 | -13.75475 | -52.24119 | 36015 ft | 487 kts | 338° |
| 2026-04-23 02:35 | -13.69335 | -52.27080 | 36015 ft | 487 kts | 338° |
| 2026-04-23 02:35 | -13.63212 | -52.30076 | 36015 ft | 487 kts | 337° |
| 2026-04-23 02:36 | -13.57144 | -52.33201 | 36016 ft | 488 kts | 336° |
| 2026-04-23 02:36 | -13.51104 | -52.36357 | 36012 ft | 487 kts | 336° |
| 2026-04-23 02:37 | -13.45078 | -52.39456 | 36020 ft | 487 kts | 337° |
| 2026-04-23 02:37 | -13.39004 | -52.42544 | 36021 ft | 487 kts | 337° |
| 2026-04-23 02:38 | -13.32929 | -52.45630 | 36023 ft | 487 kts | 337° |
| 2026-04-23 02:38 | -13.26875 | -52.48728 | 36017 ft | 487 kts | 337° |
| 2026-04-23 02:39 | -13.20808 | -52.51825 | 36020 ft | 486 kts | 337° |
| 2026-04-23 02:39 | -13.14746 | -52.54910 | 36020 ft | 486 kts | 337° |
| 2026-04-23 02:40 | -13.08691 | -52.57994 | 36018 ft | 486 kts | 337° |
| 2026-04-23 02:40 | -13.02638 | -52.61075 | 36014 ft | 486 kts | 337° |
| 2026-04-23 02:41 | -12.96581 | -52.64148 | 36010 ft | 485 kts | 337° |
| 2026-04-23 02:41 | -12.90522 | -52.67217 | 36011 ft | 485 kts | 337° |
| 2026-04-23 02:42 | -12.84469 | -52.70287 | 36015 ft | 485 kts | 337° |
| 2026-04-23 02:42 | -12.78412 | -52.73360 | 36013 ft | 485 kts | 337° |
| 2026-04-23 02:43 | -12.72363 | -52.76422 | 36016 ft | 486 kts | 337° |
| 2026-04-23 02:43 | -12.66296 | -52.79501 | 36015 ft | 486 kts | 337° |
| 2026-04-23 02:44 | -12.60250 | -52.82575 | 36018 ft | 486 kts | 337° |
| 2026-04-23 02:44 | -12.54188 | -52.85638 | 36016 ft | 486 kts | 337° |
| 2026-04-23 02:45 | -12.48131 | -52.88695 | 36009 ft | 485 kts | 337° |
| 2026-04-23 02:45 | -12.42083 | -52.91762 | 36018 ft | 485 kts | 337° |
| 2026-04-23 02:46 | -12.36030 | -52.94826 | 36010 ft | 485 kts | 337° |
| 2026-04-23 02:46 | -12.30009 | -52.97857 | 36012 ft | 485 kts | 337° |
| 2026-04-23 02:47 | -12.23961 | -53.00904 | 36009 ft | 485 kts | 337° |
| 2026-04-23 02:47 | -12.17891 | -53.03965 | 36014 ft | 485 kts | 337° |
| 2026-04-23 02:48 | -12.11847 | -53.07020 | 36015 ft | 485 kts | 337° |
| 2026-04-23 02:48 | -12.05804 | -53.10074 | 36008 ft | 484 kts | 337° |
| 2026-04-23 02:49 | -11.99755 | -53.13121 | 36015 ft | 484 kts | 337° |
| 2026-04-23 02:49 | -11.93713 | -53.16164 | 36010 ft | 484 kts | 337° |
| 2026-04-23 02:50 | -11.87667 | -53.19211 | 36014 ft | 484 kts | 337° |
| 2026-04-23 02:50 | -11.81624 | -53.22254 | 36010 ft | 484 kts | 337° |
| 2026-04-23 02:51 | -11.75583 | -53.25294 | 36009 ft | 484 kts | 338° |
| 2026-04-23 02:51 | -11.69534 | -53.28339 | 36007 ft | 484 kts | 338° |
| 2026-04-23 02:52 | -11.63491 | -53.31373 | 36001 ft | 484 kts | 338° |
| 2026-04-23 02:52 | -11.57443 | -53.34407 | 36000 ft | 484 kts | 338° |
| 2026-04-23 02:53 | -11.51402 | -53.37440 | 36003 ft | 484 kts | 338° |
| 2026-04-23 02:53 | -11.45359 | -53.40471 | 36007 ft | 484 kts | 338° |
| 2026-04-23 02:54 | -11.39319 | -53.43504 | 36006 ft | 484 kts | 338° |
| 2026-04-23 02:54 | -11.33268 | -53.46546 | 36005 ft | 484 kts | 338° |
| 2026-04-23 02:55 | -11.27232 | -53.49575 | 36006 ft | 484 kts | 338° |
| 2026-04-23 02:55 | -11.21184 | -53.52595 | 36005 ft | 484 kts | 338° |
| 2026-04-23 02:56 | -11.15130 | -53.55619 | 36003 ft | 484 kts | 338° |
| 2026-04-23 02:56 | -11.09079 | -53.58645 | 36001 ft | 485 kts | 338° |
| 2026-04-23 02:57 | -11.03028 | -53.61677 | 36001 ft | 485 kts | 337° |
| 2026-04-23 02:57 | -10.97011 | -53.64692 | 36001 ft | 485 kts | 338° |
| 2026-04-23 02:58 | -10.90951 | -53.67718 | 36001 ft | 485 kts | 337° |
| 2026-04-23 02:58 | -10.84885 | -53.70738 | 35999 ft | 485 kts | 337° |
| 2026-04-23 02:59 | -10.78828 | -53.73755 | 36003 ft | 485 kts | 337° |
| 2026-04-23 02:59 | -10.72770 | -53.76778 | 36002 ft | 485 kts | 337° |
| 2026-04-23 03:00 | -10.66717 | -53.79798 | 36005 ft | 485 kts | 337° |
| 2026-04-23 03:00 | -10.60660 | -53.82814 | 36007 ft | 484 kts | 337° |
| 2026-04-23 03:01 | -10.54609 | -53.85827 | 36010 ft | 484 kts | 337° |
| 2026-04-23 03:01 | -10.48557 | -53.88832 | 36007 ft | 484 kts | 337° |
| 2026-04-23 03:02 | -10.42506 | -53.91846 | 36006 ft | 484 kts | 337° |
| 2026-04-23 03:02 | -10.36455 | -53.94854 | 36006 ft | 484 kts | 336° |
| 2026-04-23 03:03 | -10.31433 | -53.97351 | 36007 ft | 484 kts | 336° |
| 2026-04-23 03:03 | -10.25386 | -54.00352 | 36008 ft | 483 kts | 336° |
| 2026-04-23 03:04 | -10.19344 | -54.03347 | 36007 ft | 483 kts | 336° |
| 2026-04-23 03:04 | -10.13308 | -54.06347 | 36008 ft | 483 kts | 336° |
| 2026-04-23 03:05 | -10.07269 | -54.09345 | 36002 ft | 483 kts | 336° |
| 2026-04-23 03:05 | -10.01232 | -54.12340 | 35999 ft | 483 kts | 336° |
| 2026-04-23 03:06 | -9.95194 | -54.15332 | 36005 ft | 483 kts | 336° |
| 2026-04-23 03:06 | -9.89179 | -54.18371 | 36003 ft | 483 kts | 335° |
| 2026-04-23 03:07 | -9.83217 | -54.21421 | 36005 ft | 483 kts | 335° |
| 2026-04-23 03:07 | -9.77218 | -54.24488 | 36005 ft | 483 kts | 335° |
| 2026-04-23 03:08 | -9.71207 | -54.27542 | 36010 ft | 482 kts | 335° |
| 2026-04-23 03:08 | -9.65207 | -54.30573 | 36010 ft | 482 kts | 335° |
| 2026-04-23 03:09 | -9.59205 | -54.33613 | 36007 ft | 482 kts | 335° |
| 2026-04-23 03:09 | -9.53217 | -54.36652 | 36009 ft | 481 kts | 335° |
| 2026-04-23 03:10 | -9.47231 | -54.39686 | 36002 ft | 481 kts | 335° |
| 2026-04-23 03:10 | -9.41243 | -54.42720 | 36004 ft | 481 kts | 335° |
| 2026-04-23 03:11 | -9.35251 | -54.45753 | 36010 ft | 481 kts | 335° |
| 2026-04-23 03:11 | -9.29254 | -54.48787 | 36008 ft | 481 kts | 335° |
| 2026-04-23 03:12 | -9.23274 | -54.51815 | 36012 ft | 481 kts | 335° |
| 2026-04-23 03:12 | -9.17283 | -54.54844 | 36011 ft | 481 kts | 335° |
| 2026-04-23 03:13 | -9.11297 | -54.57865 | 36013 ft | 481 kts | 335° |
| 2026-04-23 03:13 | -9.05316 | -54.60887 | 36014 ft | 481 kts | 335° |
| 2026-04-23 03:14 | -8.99331 | -54.63911 | 36008 ft | 481 kts | 335° |
| 2026-04-23 03:14 | -8.93349 | -54.66933 | 36012 ft | 480 kts | 335° |
| 2026-04-23 03:15 | -8.87374 | -54.69953 | 36009 ft | 480 kts | 335° |
| 2026-04-23 03:15 | -8.81429 | -54.72951 | 36009 ft | 480 kts | 335° |
| 2026-04-23 03:16 | -8.75443 | -54.75968 | 36010 ft | 480 kts | 335° |
| 2026-04-23 03:16 | -8.66480 | -54.80488 | 36008 ft | 479 kts | 335° |
| 2026-04-23 03:17 | -8.60514 | -54.83495 | 36010 ft | 479 kts | 335° |
| 2026-04-23 03:17 | -8.54542 | -54.86497 | 36006 ft | 479 kts | 335° |
| 2026-04-23 03:18 | -8.48584 | -54.89498 | 36000 ft | 479 kts | 335° |
| 2026-04-23 03:18 | -8.42611 | -54.92507 | 35997 ft | 479 kts | 335° |
| 2026-04-23 03:19 | -8.36643 | -54.95505 | 35994 ft | 479 kts | 335° |
| 2026-04-23 03:19 | -8.30681 | -54.98508 | 35991 ft | 479 kts | 335° |
| 2026-04-23 03:20 | -8.24757 | -55.01495 | 35992 ft | 479 kts | 335° |
| 2026-04-23 03:20 | -8.18791 | -55.04489 | 35998 ft | 479 kts | 335° |
| 2026-04-23 03:21 | -8.12788 | -55.07497 | 36000 ft | 478 kts | 335° |
| 2026-04-23 03:21 | -8.06874 | -55.10467 | 35995 ft | 478 kts | 335° |
| 2026-04-23 03:22 | -8.00918 | -55.13462 | 35994 ft | 478 kts | 335° |
| 2026-04-23 03:22 | -7.94965 | -55.16457 | 35994 ft | 478 kts | 335° |
| 2026-04-23 03:23 | -7.89013 | -55.19436 | 35994 ft | 477 kts | 335° |
| 2026-04-23 03:23 | -7.83063 | -55.22417 | 35992 ft | 477 kts | 335° |
| 2026-04-23 03:24 | -7.77120 | -55.25400 | 35990 ft | 477 kts | 335° |
| 2026-04-23 03:24 | -7.71164 | -55.28388 | 35991 ft | 477 kts | 335° |
| 2026-04-23 03:25 | -7.65216 | -55.31370 | 35992 ft | 477 kts | 335° |
| 2026-04-23 03:25 | -7.59267 | -55.34346 | 35992 ft | 477 kts | 335° |
| 2026-04-23 03:26 | -7.53314 | -55.37331 | 35989 ft | 477 kts | 335° |
| 2026-04-23 03:26 | -7.47402 | -55.40288 | 35985 ft | 478 kts | 335° |
| 2026-04-23 03:27 | -7.41451 | -55.43266 | 35982 ft | 478 kts | 335° |
| 2026-04-23 03:27 | -7.35486 | -55.46245 | 35984 ft | 479 kts | 335° |
| 2026-04-23 03:28 | -7.29523 | -55.49234 | 35985 ft | 479 kts | 335° |
| 2026-04-23 03:28 | -7.23557 | -55.52225 | 35987 ft | 479 kts | 335° |
| 2026-04-23 03:29 | -7.17584 | -55.55210 | 35985 ft | 479 kts | 335° |
| 2026-04-23 03:29 | -7.11612 | -55.58191 | 35986 ft | 479 kts | 335° |
| 2026-04-23 03:30 | -7.05631 | -55.61179 | 35988 ft | 479 kts | 335° |
| 2026-04-23 03:30 | -6.99657 | -55.64165 | 35990 ft | 479 kts | 335° |
| 2026-04-23 03:31 | -6.93686 | -55.67147 | 35991 ft | 479 kts | 335° |
| 2026-04-23 03:31 | -6.87698 | -55.70129 | 35991 ft | 479 kts | 335° |
| 2026-04-23 03:32 | -6.81729 | -55.73113 | 35989 ft | 479 kts | 335° |
| 2026-04-23 03:32 | -6.75752 | -55.76100 | 35990 ft | 479 kts | 335° |
| 2026-04-23 03:33 | -6.69776 | -55.79087 | 35988 ft | 479 kts | 335° |
| 2026-04-23 03:33 | -6.63797 | -55.82061 | 35983 ft | 480 kts | 335° |
| 2026-04-23 03:34 | -6.57813 | -55.85039 | 35986 ft | 480 kts | 335° |
| 2026-04-23 03:34 | -6.51834 | -55.88028 | 35987 ft | 480 kts | 335° |
| 2026-04-23 03:35 | -6.45851 | -55.91009 | 35988 ft | 480 kts | 335° |
| 2026-04-23 03:35 | -6.39860 | -55.93993 | 35989 ft | 480 kts | 335° |
| 2026-04-23 03:36 | -6.33872 | -55.96970 | 35989 ft | 480 kts | 335° |
| 2026-04-23 03:36 | -6.27879 | -55.99958 | 35987 ft | 480 kts | 335° |
| 2026-04-23 03:37 | -6.21888 | -56.02941 | 35983 ft | 481 kts | 335° |
| 2026-04-23 03:37 | -6.15894 | -56.05921 | 35986 ft | 481 kts | 335° |
| 2026-04-23 03:38 | -6.09891 | -56.08905 | 35989 ft | 481 kts | 335° |
| 2026-04-23 03:38 | -6.03888 | -56.11885 | 35990 ft | 481 kts | 335° |
| 2026-04-23 03:39 | -5.97929 | -56.14851 | 35988 ft | 481 kts | 335° |
| 2026-04-23 03:39 | -5.91928 | -56.17840 | 35987 ft | 482 kts | 335° |
| 2026-04-23 03:40 | -5.85919 | -56.20827 | 35987 ft | 482 kts | 335° |
| 2026-04-23 03:40 | -5.79907 | -56.23815 | 35988 ft | 482 kts | 335° |
| 2026-04-23 03:41 | -5.73892 | -56.26799 | 35994 ft | 482 kts | 335° |
| 2026-04-23 03:41 | -5.67886 | -56.29783 | 35989 ft | 482 kts | 335° |
| 2026-04-23 03:42 | -5.61881 | -56.32768 | 35991 ft | 482 kts | 335° |
| 2026-04-23 03:42 | -5.55866 | -56.35752 | 35990 ft | 482 kts | 335° |
| 2026-04-23 03:43 | -5.49855 | -56.38736 | 35990 ft | 482 kts | 335° |
| 2026-04-23 03:43 | -5.43876 | -56.41703 | 35991 ft | 482 kts | 335° |
| 2026-04-23 03:44 | -5.37857 | -56.44687 | 35991 ft | 482 kts | 335° |
| 2026-04-23 03:44 | -5.31842 | -56.47669 | 35989 ft | 482 kts | 335° |
| 2026-04-23 03:45 | -5.25822 | -56.50657 | 35987 ft | 483 kts | 335° |
| 2026-04-23 03:45 | -5.19801 | -56.53639 | 35988 ft | 483 kts | 335° |
| 2026-04-23 03:46 | -5.13774 | -56.56626 | 35990 ft | 483 kts | 335° |
| 2026-04-23 03:46 | -5.07758 | -56.59606 | 35988 ft | 483 kts | 335° |
| 2026-04-23 03:47 | -5.01725 | -56.62596 | 35988 ft | 483 kts | 335° |
| 2026-04-23 03:47 | -4.95702 | -56.65591 | 35989 ft | 483 kts | 335° |
| 2026-04-23 03:48 | -4.89672 | -56.68578 | 35988 ft | 484 kts | 335° |
| 2026-04-23 03:48 | -4.84608 | -56.71073 | 35990 ft | 484 kts | 335° |
| 2026-04-23 03:49 | -4.78610 | -56.74037 | 35991 ft | 484 kts | 335° |
| 2026-04-23 03:49 | -4.72577 | -56.77029 | 35997 ft | 484 kts | 335° |
| 2026-04-23 03:50 | -4.66512 | -56.80033 | 35999 ft | 483 kts | 335° |
| 2026-04-23 03:50 | -4.60522 | -56.83001 | 35999 ft | 483 kts | 335° |
| 2026-04-23 03:51 | -4.54485 | -56.85986 | 36000 ft | 483 kts | 335° |
| 2026-04-23 03:51 | -4.48457 | -56.88968 | 35996 ft | 483 kts | 335° |
| 2026-04-23 03:52 | -4.42425 | -56.91945 | 35993 ft | 484 kts | 335° |
| 2026-04-23 03:52 | -4.36383 | -56.94930 | 35991 ft | 484 kts | 335° |
| 2026-04-23 03:53 | -4.30344 | -56.97919 | 35990 ft | 484 kts | 335° |
| 2026-04-23 03:53 | -4.24301 | -57.00903 | 35989 ft | 484 kts | 335° |
| 2026-04-23 03:54 | -4.18257 | -57.03886 | 35989 ft | 484 kts | 335° |
| 2026-04-23 03:54 | -4.12219 | -57.06872 | 35986 ft | 484 kts | 335° |
| 2026-04-23 03:55 | -4.06172 | -57.09858 | 35988 ft | 484 kts | 335° |
| 2026-04-23 03:55 | -4.00163 | -57.12831 | 35995 ft | 485 kts | 336° |
| 2026-04-23 03:56 | -3.94110 | -57.15823 | 35990 ft | 485 kts | 335° |
| 2026-04-23 03:56 | -3.88054 | -57.18814 | 35989 ft | 485 kts | 336° |
| 2026-04-23 03:57 | -3.81992 | -57.21803 | 35985 ft | 486 kts | 335° |
| 2026-04-23 03:57 | -3.75920 | -57.24800 | 35984 ft | 486 kts | 335° |
| 2026-04-23 03:58 | -3.69857 | -57.27791 | 35982 ft | 486 kts | 335° |
| 2026-04-23 03:58 | -3.63778 | -57.30786 | 35984 ft | 486 kts | 335° |
| 2026-04-23 03:59 | -3.57708 | -57.33779 | 35987 ft | 487 kts | 335° |
| 2026-04-23 03:59 | -3.51634 | -57.36767 | 35988 ft | 487 kts | 335° |
| 2026-04-23 04:00 | -3.45554 | -57.39764 | 35990 ft | 487 kts | 336° |
| 2026-04-23 04:00 | -3.39460 | -57.42770 | 35985 ft | 487 kts | 336° |
| 2026-04-23 04:01 | -3.33373 | -57.45762 | 35985 ft | 488 kts | 336° |
| 2026-04-23 04:01 | -3.27282 | -57.48759 | 35985 ft | 488 kts | 336° |
| 2026-04-23 04:02 | -3.21189 | -57.51757 | 35986 ft | 488 kts | 336° |
| 2026-04-23 04:02 | -3.15091 | -57.54758 | 35993 ft | 487 kts | 336° |
| 2026-04-23 04:03 | -3.09020 | -57.57739 | 35992 ft | 487 kts | 336° |
| 2026-04-23 04:03 | -3.02937 | -57.60743 | 35988 ft | 487 kts | 336° |
| 2026-04-23 04:04 | -2.96871 | -57.63737 | 35990 ft | 486 kts | 336° |
| 2026-04-23 04:04 | -2.90788 | -57.66730 | 35994 ft | 486 kts | 336° |
| 2026-04-23 04:05 | -2.84752 | -57.69699 | 35981 ft | 487 kts | 336° |
| 2026-04-23 04:05 | -2.78676 | -57.72699 | 35978 ft | 487 kts | 336° |
| 2026-04-23 04:06 | -2.72587 | -57.75699 | 35978 ft | 487 kts | 337° |
| 2026-04-23 04:06 | -2.66501 | -57.78693 | 35980 ft | 488 kts | 336° |
| 2026-04-23 04:07 | -2.60405 | -57.81689 | 35985 ft | 488 kts | 337° |
| 2026-04-23 04:07 | -2.54305 | -57.84689 | 35990 ft | 489 kts | 336° |
| 2026-04-23 04:08 | -2.48202 | -57.87694 | 35984 ft | 489 kts | 336° |
| 2026-04-23 04:08 | -2.42100 | -57.90701 | 35981 ft | 489 kts | 336° |
| 2026-04-23 04:09 | -2.35994 | -57.93708 | 35986 ft | 489 kts | 336° |
| 2026-04-23 04:09 | -2.29894 | -57.96701 | 35991 ft | 488 kts | 336° |
| 2026-04-23 04:10 | -2.23836 | -57.99680 | 35983 ft | 488 kts | 337° |
| 2026-04-23 04:10 | -2.17693 | -58.02693 | 35981 ft | 489 kts | 337° |
| 2026-04-23 04:11 | -2.11623 | -58.05676 | 35984 ft | 490 kts | 337° |
| 2026-04-23 04:11 | -2.05511 | -58.08685 | 35984 ft | 490 kts | 337° |
| 2026-04-23 04:12 | -1.99397 | -58.11694 | 35986 ft | 490 kts | 337° |
| 2026-04-23 04:12 | -1.93284 | -58.14700 | 35993 ft | 490 kts | 336° |
| 2026-04-23 04:13 | -1.87163 | -58.17706 | 35995 ft | 490 kts | 336° |
| 2026-04-23 04:13 | -1.81048 | -58.20706 | 35995 ft | 490 kts | 336° |
| 2026-04-23 04:14 | -1.74937 | -58.23708 | 35995 ft | 490 kts | 337° |
| 2026-04-23 04:14 | -1.68815 | -58.26721 | 35999 ft | 490 kts | 336° |
| 2026-04-23 04:15 | -1.62707 | -58.29728 | 35996 ft | 490 kts | 336° |
| 2026-04-23 04:16 | -1.53540 | -58.34233 | 36011 ft | 488 kts | 337° |
| 2026-04-23 04:16 | -1.47454 | -58.37222 | 36006 ft | 487 kts | 337° |
| 2026-04-23 04:17 | -1.41389 | -58.40202 | 36002 ft | 486 kts | 336° |
| 2026-04-23 04:17 | -1.35328 | -58.43190 | 35999 ft | 486 kts | 337° |
| 2026-04-23 04:18 | -1.29261 | -58.46165 | 36000 ft | 485 kts | 336° |
| 2026-04-23 04:18 | -1.23198 | -58.49135 | 35989 ft | 485 kts | 336° |
| 2026-04-23 04:19 | -1.17133 | -58.52112 | 35989 ft | 485 kts | 336° |
| 2026-04-23 04:19 | -1.11114 | -58.55077 | 35991 ft | 486 kts | 336° |
| 2026-04-23 04:20 | -1.05007 | -58.58082 | 35991 ft | 486 kts | 336° |
| 2026-04-23 04:20 | -0.98970 | -58.61044 | 35992 ft | 486 kts | 336° |
| 2026-04-23 04:21 | -0.92890 | -58.64024 | 35983 ft | 487 kts | 336° |
| 2026-04-23 04:21 | -0.86811 | -58.67001 | 35980 ft | 487 kts | 336° |
| 2026-04-23 04:22 | -0.80722 | -58.69998 | 35983 ft | 488 kts | 336° |
| 2026-04-23 04:22 | -0.74636 | -58.72994 | 35986 ft | 488 kts | 336° |
| 2026-04-23 04:23 | -0.68548 | -58.75986 | 35987 ft | 488 kts | 336° |
| 2026-04-23 04:23 | -0.62445 | -58.78982 | 35988 ft | 488 kts | 336° |
| 2026-04-23 04:24 | -0.56346 | -58.81972 | 35986 ft | 489 kts | 336° |
| 2026-04-23 04:24 | -0.50243 | -58.84969 | 35991 ft | 489 kts | 336° |
| 2026-04-23 04:25 | -0.44144 | -58.87964 | 35991 ft | 489 kts | 336° |
| 2026-04-23 04:25 | -0.38046 | -58.90970 | 35995 ft | 489 kts | 336° |
| 2026-04-23 04:26 | -0.31928 | -58.93969 | 35997 ft | 489 kts | 336° |
| 2026-04-23 04:26 | -0.25820 | -58.96959 | 35997 ft | 489 kts | 336° |
| 2026-04-23 04:27 | -0.19716 | -58.99954 | 36000 ft | 489 kts | 336° |
| 2026-04-23 04:27 | -0.13598 | -59.02961 | 36004 ft | 489 kts | 336° |
| 2026-04-23 04:28 | -0.04467 | -59.07440 | 35998 ft | 490 kts | 336° |
| 2026-04-23 04:28 | 0.01651 | -59.10450 | 36007 ft | 490 kts | 336° |
| 2026-04-23 04:29 | 0.07771 | -59.13459 | 36006 ft | 491 kts | 336° |
| 2026-04-23 04:29 | 0.13903 | -59.16466 | 35995 ft | 491 kts | 336° |
| 2026-04-23 04:30 | 0.20042 | -59.19479 | 35992 ft | 491 kts | 336° |
| 2026-04-23 04:30 | 0.26175 | -59.22488 | 35992 ft | 491 kts | 336° |
| 2026-04-23 04:31 | 0.32315 | -59.25491 | 35997 ft | 491 kts | 336° |
| 2026-04-23 04:31 | 0.38454 | -59.28505 | 35988 ft | 492 kts | 336° |
| 2026-04-23 04:32 | 0.44600 | -59.31530 | 35987 ft | 492 kts | 336° |
| 2026-04-23 04:32 | 0.50741 | -59.34549 | 35991 ft | 492 kts | 336° |
| 2026-04-23 04:33 | 0.56888 | -59.37566 | 35986 ft | 491 kts | 336° |
| 2026-04-23 04:33 | 0.61905 | -59.40031 | 35968 ft | 479 kts | 336° |
| 2026-04-23 04:34 | 0.68876 | -59.43456 | 35972 ft | 477 kts | 336° |
| 2026-04-23 04:34 | 0.73827 | -59.45877 | 35973 ft | 477 kts | 336° |
| 2026-04-23 04:35 | 0.79785 | -59.48799 | 35973 ft | 477 kts | 336° |
| 2026-04-23 04:35 | 0.85735 | -59.51727 | 35976 ft | 476 kts | 336° |
| 2026-04-23 04:36 | 0.91682 | -59.54652 | 35975 ft | 477 kts | 336° |
| 2026-04-23 04:36 | 0.97642 | -59.57577 | 35980 ft | 477 kts | 336° |
| 2026-04-23 04:37 | 1.03595 | -59.60499 | 35982 ft | 477 kts | 336° |
| 2026-04-23 04:37 | 1.09559 | -59.63422 | 35978 ft | 476 kts | 336° |
| 2026-04-23 04:38 | 1.15486 | -59.66386 | 35977 ft | 477 kts | 334° |
| 2026-04-23 04:38 | 1.21227 | -59.69730 | 35977 ft | 478 kts | 330° |
| 2026-04-23 04:39 | 1.26863 | -59.73280 | 35976 ft | 478 kts | 329° |
| 2026-04-23 04:39 | 1.29674 | -59.75043 | 35635 ft | 477 kts | 330° |
| 2026-04-23 04:39 | 1.32498 | -59.76781 | 34937 ft | 477 kts | 330° |
| 2026-04-23 04:40 | 1.35343 | -59.78500 | 34261 ft | 478 kts | 331° |
| 2026-04-23 04:40 | 1.38199 | -59.80204 | 33516 ft | 479 kts | 331° |
| 2026-04-23 04:40 | 1.41064 | -59.81906 | 32714 ft | 480 kts | 331° |
| 2026-04-23 04:40 | 1.43933 | -59.83616 | 31909 ft | 481 kts | 330° |
| 2026-04-23 04:41 | 1.46801 | -59.85336 | 31542 ft | 481 kts | 330° |
| 2026-04-23 04:41 | 1.49678 | -59.87066 | 31302 ft | 483 kts | 330° |
| 2026-04-23 04:41 | 1.52556 | -59.88800 | 31063 ft | 484 kts | 330° |
| 2026-04-23 04:41 | 1.55442 | -59.90537 | 30844 ft | 483 kts | 330° |
| 2026-04-23 04:42 | 1.58323 | -59.92271 | 30618 ft | 483 kts | 330° |
| 2026-04-23 04:42 | 1.61200 | -59.94001 | 30383 ft | 484 kts | 330° |
| 2026-04-23 04:42 | 1.64091 | -59.95739 | 30156 ft | 484 kts | 330° |
| 2026-04-23 04:42 | 1.66977 | -59.97476 | 29910 ft | 486 kts | 329° |
| 2026-04-23 04:43 | 1.69879 | -59.99224 | 29637 ft | 487 kts | 329° |
| 2026-04-23 04:43 | 1.72782 | -60.00973 | 29365 ft | 487 kts | 329° |
| 2026-04-23 04:43 | 1.75639 | -60.02696 | 29113 ft | 485 kts | 329° |
| 2026-04-23 04:43 | 1.78552 | -60.04451 | 28532 ft | 481 kts | 329° |
| 2026-04-23 04:44 | 1.81410 | -60.06173 | 27785 ft | 478 kts | 329° |
| 2026-04-23 04:44 | 1.84209 | -60.07859 | 27084 ft | 474 kts | 329° |
| 2026-04-23 04:44 | 1.87063 | -60.09579 | 26370 ft | 471 kts | 329° |
| 2026-04-23 04:44 | 1.89864 | -60.11267 | 25677 ft | 468 kts | 329° |
| 2026-04-23 04:45 | 1.92609 | -60.12921 | 25000 ft | 466 kts | 329° |
| 2026-04-23 04:45 | 1.95375 | -60.14584 | 24313 ft | 464 kts | 329° |
| 2026-04-23 04:45 | 1.98139 | -60.16244 | 23633 ft | 462 kts | 329° |
| 2026-04-23 04:45 | 2.00886 | -60.17897 | 22878 ft | 459 kts | 329° |
| 2026-04-23 04:46 | 2.03604 | -60.19533 | 22279 ft | 454 kts | 329° |
| 2026-04-23 04:46 | 2.06297 | -60.21153 | 21669 ft | 449 kts | 329° |
| 2026-04-23 04:46 | 2.08959 | -60.22753 | 21109 ft | 443 kts | 329° |
| 2026-04-23 04:46 | 2.11581 | -60.24330 | 20545 ft | 438 kts | 329° |
| 2026-04-23 04:47 | 2.14174 | -60.25891 | 20027 ft | 432 kts | 329° |
| 2026-04-23 04:47 | 2.16739 | -60.27437 | 19510 ft | 427 kts | 329° |
| 2026-04-23 04:47 | 2.19268 | -60.28963 | 18997 ft | 422 kts | 328° |
| 2026-04-23 04:47 | 2.21767 | -60.30466 | 18481 ft | 418 kts | 328° |
| 2026-04-23 04:48 | 2.24251 | -60.31960 | 17922 ft | 414 kts | 328° |
| 2026-04-23 04:48 | 2.26706 | -60.33437 | 17360 ft | 409 kts | 328° |
| 2026-04-23 04:48 | 2.29129 | -60.34896 | 16842 ft | 404 kts | 328° |
| 2026-04-23 04:48 | 2.31532 | -60.36344 | 16300 ft | 401 kts | 328° |
| 2026-04-23 04:49 | 2.33907 | -60.37776 | 15768 ft | 397 kts | 328° |
| 2026-04-23 04:49 | 2.36267 | -60.39198 | 15217 ft | 395 kts | 328° |
| 2026-04-23 04:49 | 2.38616 | -60.40613 | 14672 ft | 393 kts | 328° |
| 2026-04-23 04:49 | 2.40957 | -60.42023 | 14113 ft | 391 kts | 327° |
| 2026-04-23 04:50 | 2.43282 | -60.43424 | 13537 ft | 390 kts | 327° |
| 2026-04-23 04:50 | 2.45602 | -60.44821 | 12950 ft | 387 kts | 327° |
| 2026-04-23 04:50 | 2.47893 | -60.46201 | 12392 ft | 383 kts | 328° |
| 2026-04-23 04:50 | 2.50171 | -60.47574 | 11825 ft | 380 kts | 327° |
| 2026-04-23 04:51 | 2.52426 | -60.48933 | 11250 ft | 377 kts | 328° |
| 2026-04-23 04:51 | 2.54665 | -60.50281 | 10695 ft | 374 kts | 328° |
| 2026-04-23 04:51 | 2.56876 | -60.51610 | 10303 ft | 366 kts | 327° |
| 2026-04-23 04:51 | 2.58987 | -60.52880 | 10079 ft | 353 kts | 327° |
| 2026-04-23 04:52 | 2.61077 | -60.54138 | 9949 ft | 338 kts | 327° |
| 2026-04-23 04:52 | 2.63021 | -60.55308 | 9952 ft | 312 kts | 327° |
| 2026-04-23 04:52 | 2.64802 | -60.56380 | 9958 ft | 298 kts | 327° |
| 2026-04-23 04:52 | 2.66565 | -60.57446 | 9766 ft | 297 kts | 327° |
| 2026-04-23 04:53 | 2.68317 | -60.58504 | 9180 ft | 291 kts | 327° |
| 2026-04-23 04:53 | 2.70050 | -60.59549 | 8709 ft | 292 kts | 327° |
| 2026-04-23 04:53 | 2.71791 | -60.60598 | 8292 ft | 291 kts | 328° |
| 2026-04-23 04:53 | 2.73531 | -60.61646 | 7852 ft | 292 kts | 328° |
| 2026-04-23 04:54 | 2.75243 | -60.62678 | 7387 ft | 284 kts | 328° |
| 2026-04-23 04:54 | 2.76874 | -60.63663 | 7143 ft | 266 kts | 328° |
| 2026-04-23 04:54 | 2.78414 | -60.64593 | 6960 ft | 249 kts | 328° |
| 2026-04-23 04:54 | 2.79857 | -60.65466 | 6847 ft | 238 kts | 328° |
| 2026-04-23 04:55 | 2.81293 | -60.66335 | 6512 ft | 241 kts | 327° |
| 2026-04-23 04:55 | 2.82721 | -60.67200 | 6057 ft | 246 kts | 327° |
| 2026-04-23 04:55 | 2.84040 | -60.68300 | 5559 ft | 247 kts | 310° |
| 2026-04-23 04:55 | 2.84970 | -60.69713 | 5171 ft | 240 kts | 294° |
| 2026-04-23 04:56 | 2.85463 | -60.71277 | 4837 ft | 233 kts | 279° |
| 2026-04-23 04:56 | 2.85627 | -60.72867 | 4496 ft | 227 kts | 275° |
| 2026-04-23 04:56 | 2.85776 | -60.74418 | 4194 ft | 220 kts | 276° |
| 2026-04-23 04:56 | 2.85922 | -60.75924 | 3908 ft | 215 kts | 276° |
| 2026-04-23 04:57 | 2.86065 | -60.77394 | 3619 ft | 210 kts | 276° |
| 2026-04-23 04:57 | 2.86206 | -60.78835 | 3286 ft | 206 kts | 276° |
| 2026-04-23 04:57 | 2.86343 | -60.80230 | 3015 ft | 196 kts | 276° |
| 2026-04-23 04:57 | 2.86268 | -60.81569 | 2773 ft | 192 kts | 255° |
| 2026-04-23 04:58 | 2.85723 | -60.82766 | 2531 ft | 188 kts | 234° |
| 2026-04-23 04:58 | 2.84804 | -60.83675 | 2290 ft | 185 kts | 213° |
| 2026-04-23 04:58 | 2.83653 | -60.84193 | 2093 ft | 179 kts | 192° |
| 2026-04-23 04:58 | 2.82444 | -60.84292 | 2004 ft | 173 kts | 173° |
| 2026-04-23 04:59 | 2.81295 | -60.84006 | 1994 ft | 170 kts | 154° |
| 2026-04-23 04:59 | 2.80308 | -60.83372 | 1954 ft | 169 kts | 136° |
| 2026-04-23 04:59 | 2.79574 | -60.82461 | 1952 ft | 169 kts | 118° |
| 2026-04-23 04:59 | 2.79171 | -60.81369 | 1954 ft | 167 kts | 100° |
| 2026-04-23 05:00 | 2.79132 | -60.80205 | 1953 ft | 168 kts | 82° |
| 2026-04-23 05:00 | 2.79482 | -60.79102 | 1955 ft | 168 kts | 64° |
| 2026-04-23 05:00 | 2.79989 | -60.78087 | 1907 ft | 158 kts | 63° |
| 2026-04-23 05:00 | 2.80477 | -60.77128 | 1753 ft | 152 kts | 63° |
| 2026-04-23 05:01 | 2.80955 | -60.76194 | 1578 ft | 150 kts | 63° |
| 2026-04-23 05:01 | 2.81424 | -60.75276 | 1452 ft | 145 kts | 63° |
| 2026-04-23 05:01 | 2.81880 | -60.74386 | 1271 ft | 143 kts | 63° |
| 2026-04-23 05:01 | 2.82331 | -60.73506 | 1074 ft | 142 kts | 63° |
| 2026-04-23 05:02 | 2.82779 | -60.72631 | 872 ft | 141 kts | 64° |
| 2026-04-23 05:02 | 2.83228 | -60.71759 | 683 ft | 141 kts | 64° |
| 2026-04-23 05:02 | 2.83673 | -60.70885 | 473 ft | 141 kts | 64° |
| 2026-04-23 05:02 | 2.84115 | -60.70016 | 295 ft | 135 kts | 64° |
| 2026-04-23 05:03 | 2.84482 | -60.69301 | 280 ft | 79 kts | 63° |
| 2026-04-23 05:03 | 2.84612 | -60.69053 | 281 ft | 22 kts | 62° |
| 2026-04-23 05:03 | 2.84684 | -60.68912 | 281 ft | 23 kts | 63° |
| 2026-04-23 05:03 | 2.84761 | -60.68763 | 282 ft | 24 kts | 61° |
| 2026-04-23 05:04 | 2.84842 | -60.68605 | 280 ft | 27 kts | 62° |
| 2026-04-23 05:04 | 2.84874 | -60.68468 | 283 ft | 15 kts | 129° |
| 2026-04-23 05:04 | 2.84787 | -60.68424 | 280 ft | 13 kts | 161° |
| 2026-04-23 05:04 | 2.84737 | -60.68464 | 282 ft | 9 kts | 244° |
| 2026-04-23 05:05 | 2.84713 | -60.68515 | 280 ft | 7 kts | 244° |
| 2026-04-23 05:05 | 2.84688 | -60.68564 | 280 ft | 13 kts | 242° |
| 2026-04-23 05:05 | 2.84636 | -60.68664 | 280 ft | 17 kts | 243° |
| 2026-04-23 05:05 | 2.84581 | -60.68772 | 280 ft | 18 kts | 243° |
| 2026-04-23 05:06 | 2.84521 | -60.68891 | 280 ft | 20 kts | 243° |
| 2026-04-23 05:06 | 2.84454 | -60.69021 | 284 ft | 22 kts | 243° |
| 2026-04-23 05:06 | 2.84382 | -60.69164 | 283 ft | 24 kts | 245° |
| 2026-04-23 05:06 | 2.84298 | -60.69228 | 279 ft | 14 kts | 173° |
| 2026-04-23 05:07 | 2.84228 | -60.69259 | 279 ft | 9 kts | 193° |
| 2026-04-23 05:07 | 2.84203 | -60.69248 | 282 ft | 0 kts | 152° |